sensor_id;sensor_type;location;lat;lon;timestamp;pressure;altitude;pressure_sealevel;temperature;humidity
21869;BME280;11099;41.564;23.296;2022-09-30T00:01:36;97261.19;;;20.20;84.38
21869;BME280;11099;41.564;23.296;2022-09-30T00:04:03;97267.50;;;20.39;84.10
21869;BME280;11099;41.564;23.296;2022-09-30T00:06:29;97270.00;;;20.14;84.58
21869;BME280;11099;41.564;23.296;2022-09-30T00:08:55;97281.06;;;19.98;86.44
21869;BME280;11099;41.564;23.296;2022-09-30T00:11:24;97271.59;;;20.18;85.02
21869;BME280;11099;41.564;23.296;2022-09-30T00:13:52;97281.75;;;20.36;83.98
21869;BME280;11099;41.564;23.296;2022-09-30T00:16:19;97194.09;;;19.82;84.47
21869;BME280;11099;41.564;23.296;2022-09-30T00:18:48;97222.97;;;20.18;82.81
21869;BME280;11099;41.564;23.296;2022-09-30T00:21:15;97291.75;;;20.87;81.07
21869;BME280;11099;41.564;23.296;2022-09-30T00:23:42;97289.13;;;20.97;79.88
21869;BME280;11099;41.564;23.296;2022-09-30T00:28:56;97197.31;;;20.53;77.93
21869;BME280;11099;41.564;23.296;2022-09-30T00:31:25;97254.41;;;21.10;77.26
21869;BME280;11099;41.564;23.296;2022-09-30T00:33:51;97305.09;;;21.24;77.13
21869;BME280;11099;41.564;23.296;2022-09-30T00:36:44;97210.13;;;20.63;77.30
21869;BME280;11099;41.564;23.296;2022-09-30T00:39:16;97307.28;;;20.97;79.00
21869;BME280;11099;41.564;23.296;2022-09-30T00:41:43;97187.25;;;19.91;80.22
21869;BME280;11099;41.564;23.296;2022-09-30T00:44:48;97307.50;;;20.70;80.34
21869;BME280;11099;41.564;23.296;2022-09-30T00:50:09;97301.50;;;20.43;80.93
21869;BME280;11099;41.564;23.296;2022-09-30T00:52:36;97237.47;;;19.96;81.39
21869;BME280;11099;41.564;23.296;2022-09-30T00:55:06;97273.91;;;20.20;81.10
21869;BME280;11099;41.564;23.296;2022-09-30T00:57:35;97263.22;;;20.34;80.57
21869;BME280;11099;41.564;23.296;2022-09-30T01:00:01;97310.19;;;20.63;80.94
21869;BME280;11099;41.564;23.296;2022-09-30T01:02:27;97276.00;;;19.93;83.13
21869;BME280;11099;41.564;23.296;2022-09-30T01:04:54;97251.38;;;18.90;90.71
21869;BME280;11099;41.564;23.296;2022-09-30T01:07:22;97310.91;;;19.38;91.00
21869;BME280;11099;41.564;23.296;2022-09-30T01:09:48;97315.03;;;19.99;87.39
21869;BME280;11099;41.564;23.296;2022-09-30T01:12:20;97234.88;;;19.66;86.27
21869;BME280;11099;41.564;23.296;2022-09-30T01:14:49;97223.59;;;19.57;84.75
21869;BME280;11099;41.564;23.296;2022-09-30T01:17:52;97306.84;;;20.33;83.82
21869;BME280;11099;41.564;23.296;2022-09-30T01:26:02;97329.69;;;18.97;97.25
21869;BME280;11099;41.564;23.296;2022-09-30T01:39:31;97334.47;;;19.11;98.03
21869;BME280;11099;41.564;23.296;2022-09-30T01:47:49;97260.66;;;18.66;96.52
21869;BME280;11099;41.564;23.296;2022-09-30T01:50:43;97324.56;;;19.18;96.27
21869;BME280;11099;41.564;23.296;2022-09-30T01:53:26;97320.16;;;18.77;99.62
21869;BME280;11099;41.564;23.296;2022-09-30T01:58:38;97322.44;;;19.01;98.07
21869;BME280;11099;41.564;23.296;2022-09-30T02:01:10;97324.84;;;19.10;97.63
21869;BME280;11099;41.564;23.296;2022-09-30T02:03:46;97307.09;;;19.09;96.83
21869;BME280;11099;41.564;23.296;2022-09-30T02:06:18;97321.50;;;18.67;99.94
21869;BME280;11099;41.564;23.296;2022-09-30T02:09:01;97328.78;;;18.89;99.92
21869;BME280;11099;41.564;23.296;2022-09-30T02:11:33;97311.94;;;18.96;98.26
21869;BME280;11099;41.564;23.296;2022-09-30T02:14:12;97338.31;;;18.80;100.00
21869;BME280;11099;41.564;23.296;2022-09-30T02:16:41;97283.03;;;17.94;100.00
21869;BME280;11099;41.564;23.296;2022-09-30T02:21:44;97353.63;;;18.26;100.00
21869;BME280;11099;41.564;23.296;2022-09-30T02:24:15;97332.78;;;18.00;100.00
21869;BME280;11099;41.564;23.296;2022-09-30T02:26:44;97359.50;;;17.89;100.00
21869;BME280;11099;41.564;23.296;2022-09-30T02:29:24;97333.69;;;18.31;100.00
21869;BME280;11099;41.564;23.296;2022-09-30T02:31:56;97302.34;;;18.23;100.00
21869;BME280;11099;41.564;23.296;2022-09-30T02:34:36;97364.31;;;18.23;100.00
21869;BME280;11099;41.564;23.296;2022-09-30T02:37:19;97363.31;;;18.31;100.00
21869;BME280;11099;41.564;23.296;2022-09-30T02:40:02;97326.97;;;17.98;100.00
21869;BME280;11099;41.564;23.296;2022-09-30T02:42:31;97339.66;;;18.21;100.00
21869;BME280;11099;41.564;23.296;2022-09-30T02:45:19;97323.53;;;18.47;100.00
21869;BME280;11099;41.564;23.296;2022-09-30T02:48:11;97377.63;;;19.07;100.00
21869;BME280;11099;41.564;23.296;2022-09-30T02:53:18;97384.88;;;18.77;100.00
21869;BME280;11099;41.564;23.296;2022-09-30T02:58:22;97340.63;;;18.32;100.00
21869;BME280;11099;41.564;23.296;2022-09-30T03:00:53;97341.88;;;18.38;100.00
21869;BME280;11099;41.564;23.296;2022-09-30T03:03:31;97388.75;;;18.56;100.00
21869;BME280;11099;41.564;23.296;2022-09-30T03:05:59;97399.56;;;18.79;100.00
21869;BME280;11099;41.564;23.296;2022-09-30T03:08:25;97323.75;;;18.61;100.00
21869;BME280;11099;41.564;23.296;2022-09-30T03:10:51;97318.41;;;18.65;100.00
21869;BME280;11099;41.564;23.296;2022-09-30T03:19:14;97388.78;;;19.66;98.10
21869;BME280;11099;41.564;23.296;2022-09-30T03:30:04;97399.50;;;18.53;100.00
21869;BME280;11099;41.564;23.296;2022-09-30T03:33:04;97395.66;;;18.77;100.00
21869;BME280;11099;41.564;23.296;2022-09-30T03:46:13;97394.19;;;18.83;100.00
21869;BME280;11099;41.564;23.296;2022-09-30T03:48:42;97330.25;;;18.34;100.00
21869;BME280;11099;41.564;23.296;2022-09-30T03:51:09;97329.28;;;18.46;100.00
21869;BME280;11099;41.564;23.296;2022-09-30T03:53:39;97377.84;;;18.49;100.00
21869;BME280;11099;41.564;23.296;2022-09-30T03:56:05;97316.13;;;18.40;100.00
21869;BME280;11099;41.564;23.296;2022-09-30T03:58:31;97355.38;;;18.64;100.00
21869;BME280;11099;41.564;23.296;2022-09-30T04:00:56;97334.81;;;18.30;100.00
21869;BME280;11099;41.564;23.296;2022-09-30T04:03:23;97299.00;;;18.06;100.00
21869;BME280;11099;41.564;23.296;2022-09-30T04:05:50;97341.06;;;18.60;100.00
21869;BME280;11099;41.564;23.296;2022-09-30T04:08:16;97358.28;;;18.75;100.00
21869;BME280;11099;41.564;23.296;2022-09-30T04:10:43;97426.44;;;19.55;98.74
21869;BME280;11099;41.564;23.296;2022-09-30T04:13:10;97428.94;;;19.67;97.41
21869;BME280;11099;41.564;23.296;2022-09-30T04:15:35;97335.81;;;18.67;96.66
21869;BME280;11099;41.564;23.296;2022-09-30T04:18:02;97419.03;;;19.48;96.08
21869;BME280;11099;41.564;23.296;2022-09-30T04:20:29;97369.38;;;19.27;94.70
21869;BME280;11099;41.564;23.296;2022-09-30T04:22:59;97412.03;;;19.74;92.97
21869;BME280;11099;41.564;23.296;2022-09-30T04:25:26;97442.47;;;19.44;94.40
21869;BME280;11099;41.564;23.296;2022-09-30T04:27:52;97385.47;;;19.19;93.72
21869;BME280;11099;41.564;23.296;2022-09-30T04:30:18;97383.84;;;19.41;91.87
21869;BME280;11099;41.564;23.296;2022-09-30T04:32:44;97423.94;;;19.39;93.22
21869;BME280;11099;41.564;23.296;2022-09-30T04:35:11;97440.00;;;19.89;90.79
21869;BME280;11099;41.564;23.296;2022-09-30T04:37:46;97433.13;;;19.95;89.11
21869;BME280;11099;41.564;23.296;2022-09-30T04:40:14;97458.22;;;20.33;87.65
21869;BME280;11099;41.564;23.296;2022-09-30T04:42:40;97435.66;;;19.81;88.86
21869;BME280;11099;41.564;23.296;2022-09-30T04:45:12;97455.75;;;19.27;91.86
21869;BME280;11099;41.564;23.296;2022-09-30T04:47:41;97435.78;;;18.82;94.38
21869;BME280;11099;41.564;23.296;2022-09-30T04:50:10;97368.72;;;18.08;99.13
21869;BME280;11099;41.564;23.296;2022-09-30T04:52:36;97362.53;;;17.69;100.00
21869;BME280;11099;41.564;23.296;2022-09-30T04:55:02;97438.56;;;17.62;100.00
21869;BME280;11099;41.564;23.296;2022-09-30T04:57:28;97410.84;;;18.20;100.00
21869;BME280;11099;41.564;23.296;2022-09-30T04:59:54;97453.22;;;18.88;100.00
21869;BME280;11099;41.564;23.296;2022-09-30T05:02:19;97390.66;;;18.79;100.00
21869;BME280;11099;41.564;23.296;2022-09-30T05:04:45;97373.41;;;18.83;100.00
21869;BME280;11099;41.564;23.296;2022-09-30T05:07:10;97397.09;;;19.54;97.13
21869;BME280;11099;41.564;23.296;2022-09-30T05:09:36;97443.31;;;20.09;92.70
21869;BME280;11099;41.564;23.296;2022-09-30T05:12:02;97402.09;;;20.19;87.73
21869;BME280;11099;41.564;23.296;2022-09-30T05:14:29;97362.47;;;20.37;82.73
21869;BME280;11099;41.564;23.296;2022-09-30T05:16:55;97392.00;;;20.49;81.10
21869;BME280;11099;41.564;23.296;2022-09-30T05:19:21;97471.78;;;21.21;79.47
21869;BME280;11099;41.564;23.296;2022-09-30T05:21:46;97481.44;;;21.22;79.70
21869;BME280;11099;41.564;23.296;2022-09-30T05:24:12;97483.22;;;21.55;78.65
21869;BME280;11099;41.564;23.296;2022-09-30T05:26:38;97475.06;;;20.19;85.15
21869;BME280;11099;41.564;23.296;2022-09-30T05:29:05;97375.22;;;19.32;86.77
21869;BME280;11099;41.564;23.296;2022-09-30T05:31:31;97410.00;;;19.37;87.05
21869;BME280;11099;41.564;23.296;2022-09-30T05:33:57;97431.50;;;19.30;88.44
21869;BME280;11099;41.564;23.296;2022-09-30T05:36:22;97459.72;;;19.93;87.66
21869;BME280;11099;41.564;23.296;2022-09-30T05:38:52;97486.25;;;20.51;84.97
21869;BME280;11099;41.564;23.296;2022-09-30T05:41:18;97478.22;;;21.61;80.13
21869;BME280;11099;41.564;23.296;2022-09-30T05:43:45;97489.06;;;22.59;75.05
21869;BME280;11099;41.564;23.296;2022-09-30T05:46:15;97425.81;;;22.23;73.83
21869;BME280;11099;41.564;23.296;2022-09-30T05:48:41;97416.19;;;22.61;71.44
21869;BME280;11099;41.564;23.296;2022-09-30T05:51:07;97433.06;;;21.97;73.56
21869;BME280;11099;41.564;23.296;2022-09-30T05:53:35;97519.66;;;22.56;74.01
21869;BME280;11099;41.564;23.296;2022-09-30T05:56:08;97390.81;;;21.75;73.67
21869;BME280;11099;41.564;23.296;2022-09-30T05:58:34;97509.03;;;22.04;75.81
21869;BME280;11099;41.564;23.296;2022-09-30T06:01:05;97521.44;;;22.09;75.87
21869;BME280;11099;41.564;23.296;2022-09-30T06:03:31;97502.69;;;23.30;70.20
21869;BME280;11099;41.564;23.296;2022-09-30T06:05:57;97499.97;;;23.30;69.20
21869;BME280;11099;41.564;23.296;2022-09-30T06:08:22;97530.06;;;24.11;66.77
21869;BME280;11099;41.564;23.296;2022-09-30T06:10:48;97526.75;;;24.55;64.54
21869;BME280;11099;41.564;23.296;2022-09-30T06:13:14;97421.38;;;23.97;62.72
21869;BME280;11099;41.564;23.296;2022-09-30T06:15:44;97435.47;;;23.70;63.60
21869;BME280;11099;41.564;23.296;2022-09-30T06:18:18;97522.31;;;24.06;64.49
21869;BME280;11099;41.564;23.296;2022-09-30T06:20:45;97482.03;;;23.72;64.59
21869;BME280;11099;41.564;23.296;2022-09-30T06:23:11;97485.16;;;23.67;65.03
21869;BME280;11099;41.564;23.296;2022-09-30T06:25:36;97519.94;;;24.15;63.92
21869;BME280;11099;41.564;23.296;2022-09-30T06:28:02;97505.00;;;23.28;66.90
21869;BME280;11099;41.564;23.296;2022-09-30T06:30:27;97518.78;;;24.19;65.08
21869;BME280;11099;41.564;23.296;2022-09-30T06:32:56;97528.59;;;24.76;62.98
21869;BME280;11099;41.564;23.296;2022-09-30T06:35:21;97548.97;;;25.13;62.40
21869;BME280;11099;41.564;23.296;2022-09-30T06:37:52;97478.19;;;24.54;62.12
21869;BME280;11099;41.564;23.296;2022-09-30T06:40:18;97547.56;;;24.90;63.01
21869;BME280;11099;41.564;23.296;2022-09-30T06:42:46;97507.56;;;24.03;65.53
21869;BME280;11099;41.564;23.296;2022-09-30T06:45:12;97508.03;;;23.73;66.11
21869;BME280;11099;41.564;23.296;2022-09-30T06:47:38;97456.50;;;23.12;67.52
21869;BME280;11099;41.564;23.296;2022-09-30T06:50:04;97481.31;;;22.65;70.31
21869;BME280;11099;41.564;23.296;2022-09-30T06:52:29;97495.19;;;22.31;72.93
21869;BME280;11099;41.564;23.296;2022-09-30T06:54:55;97533.25;;;22.59;73.44
21869;BME280;11099;41.564;23.296;2022-09-30T06:57:21;97477.75;;;22.35;73.10
21869;BME280;11099;41.564;23.296;2022-09-30T06:59:49;97497.53;;;22.32;73.86
21869;BME280;11099;41.564;23.296;2022-09-30T07:02:15;97590.72;;;23.01;73.75
21869;BME280;11099;41.564;23.296;2022-09-30T07:04:41;97494.81;;;22.47;73.21
21869;BME280;11099;41.564;23.296;2022-09-30T07:07:06;97570.56;;;23.27;71.89
21869;BME280;11099;41.564;23.296;2022-09-30T07:09:32;97579.13;;;23.25;72.60
21869;BME280;11099;41.564;23.296;2022-09-30T07:11:57;97502.28;;;22.96;71.42
21869;BME280;11099;41.564;23.296;2022-09-30T07:14:23;97568.19;;;23.97;69.07
21869;BME280;11099;41.564;23.296;2022-09-30T07:16:50;97559.16;;;24.35;66.29
21869;BME280;11099;41.564;23.296;2022-09-30T07:19:17;97507.09;;;24.23;65.78
21869;BME280;11099;41.564;23.296;2022-09-30T07:21:49;97558.25;;;25.22;62.41
21869;BME280;11099;41.564;23.296;2022-09-30T07:24:16;97584.31;;;25.23;61.38
21869;BME280;11099;41.564;23.296;2022-09-30T07:26:42;97590.63;;;25.10;60.10
21869;BME280;11099;41.564;23.296;2022-09-30T07:29:10;97530.97;;;24.70;63.36
21869;BME280;11099;41.564;23.296;2022-09-30T07:31:37;97597.63;;;25.63;62.24
21869;BME280;11099;41.564;23.296;2022-09-30T07:34:05;97605.00;;;25.14;64.14
21869;BME280;11099;41.564;23.296;2022-09-30T07:36:31;97497.22;;;24.54;62.05
21869;BME280;11099;41.564;23.296;2022-09-30T07:38:57;97502.38;;;24.96;61.42
21869;BME280;11099;41.564;23.296;2022-09-30T07:41:26;97601.06;;;25.22;62.66
21869;BME280;11099;41.564;23.296;2022-09-30T07:43:56;97587.53;;;25.08;62.03
21869;BME280;11099;41.564;23.296;2022-09-30T07:46:29;97564.56;;;25.05;61.34
21869;BME280;11099;41.564;23.296;2022-09-30T07:48:57;97543.25;;;24.96;61.23
21869;BME280;11099;41.564;23.296;2022-09-30T07:51:32;97562.94;;;25.22;61.08
21869;BME280;11099;41.564;23.296;2022-09-30T07:54:00;97607.59;;;25.84;60.10
21869;BME280;11099;41.564;23.296;2022-09-30T07:56:27;97562.69;;;25.51;59.74
21869;BME280;11099;41.564;23.296;2022-09-30T07:58:54;97532.41;;;24.89;62.75
21869;BME280;11099;41.564;23.296;2022-09-30T08:01:21;97610.97;;;25.50;62.17
21869;BME280;11099;41.564;23.296;2022-09-30T08:03:47;97619.88;;;25.54;62.65
21869;BME280;11099;41.564;23.296;2022-09-30T08:06:16;97598.78;;;25.17;63.23
21869;BME280;11099;41.564;23.296;2022-09-30T08:08:42;97604.28;;;24.99;63.63
21869;BME280;11099;41.564;23.296;2022-09-30T08:11:10;97629.81;;;25.27;64.44
21869;BME280;11099;41.564;23.296;2022-09-30T08:13:36;97587.53;;;25.08;63.69
21869;BME280;11099;41.564;23.296;2022-09-30T08:16:02;97453.34;;;24.52;63.14
21869;BME280;11099;41.564;23.296;2022-09-30T08:18:28;97585.38;;;25.82;61.46
21869;BME280;11099;41.564;23.296;2022-09-30T08:20:54;97549.63;;;25.72;60.39
21869;BME280;11099;41.564;23.296;2022-09-30T08:23:20;97579.59;;;25.76;61.20
21869;BME280;11099;41.564;23.296;2022-09-30T08:25:45;97640.06;;;26.09;60.99
21869;BME280;11099;41.564;23.296;2022-09-30T08:28:11;97599.91;;;25.68;62.26
21869;BME280;11099;41.564;23.296;2022-09-30T08:30:38;97624.28;;;26.27;60.09
21869;BME280;11099;41.564;23.296;2022-09-30T08:33:04;97661.47;;;26.51;60.34
21869;BME280;11099;41.564;23.296;2022-09-30T08:35:30;97479.41;;;24.97;61.26
21869;BME280;11099;41.564;23.296;2022-09-30T08:37:57;97601.41;;;26.51;58.93
21869;BME280;11099;41.564;23.296;2022-09-30T08:40:27;97424.88;;;25.84;58.32
21869;BME280;11099;41.564;23.296;2022-09-30T08:43:20;97563.84;;;26.59;57.85
21869;BME280;11099;41.564;23.296;2022-09-30T08:46:33;97644.78;;;27.57;56.22
21869;BME280;11099;41.564;23.296;2022-09-30T08:49:42;97640.50;;;27.33;57.11
21869;BME280;11099;41.564;23.296;2022-09-30T08:51:48;97604.06;;;27.16;58.06
21869;BME280;11099;41.564;23.296;2022-09-30T08:54:20;97582.81;;;26.70;57.34
21869;BME280;11099;41.564;23.296;2022-09-30T08:56:48;97651.81;;;27.04;58.33
21869;BME280;11099;41.564;23.296;2022-09-30T08:59:35;97493.19;;;26.04;58.18
21869;BME280;11099;41.564;23.296;2022-09-30T09:02:22;97637.53;;;26.93;57.57
21869;BME280;11099;41.564;23.296;2022-09-30T09:05:04;97623.91;;;26.90;57.88
21869;BME280;11099;41.564;23.296;2022-09-30T09:07:49;97649.50;;;27.30;57.65
21869;BME280;11099;41.564;23.296;2022-09-30T09:10:27;97642.19;;;27.50;56.77
21869;BME280;11099;41.564;23.296;2022-09-30T09:13:09;97639.41;;;27.77;55.41
21869;BME280;11099;41.564;23.296;2022-09-30T09:19:22;97595.81;;;27.67;53.72
21869;BME280;11099;41.564;23.296;2022-09-30T09:21:57;97656.25;;;27.99;53.82
21869;BME280;11099;41.564;23.296;2022-09-30T09:27:18;97616.22;;;27.12;55.87
21869;BME280;11099;41.564;23.296;2022-09-30T09:30:04;97662.72;;;27.35;55.20
21869;BME280;11099;41.564;23.296;2022-09-30T09:32:32;97652.47;;;27.43;54.79
21869;BME280;11099;41.564;23.296;2022-09-30T09:38:20;97674.41;;;27.63;54.85
21869;BME280;11099;41.564;23.296;2022-09-30T09:47:01;97645.69;;;28.61;49.60
21869;BME280;11099;41.564;23.296;2022-09-30T09:49:36;97625.88;;;28.73;49.15
21869;BME280;11099;41.564;23.296;2022-09-30T09:54:40;97618.38;;;28.18;51.07
21869;BME280;11099;41.564;23.296;2022-09-30T09:57:07;97646.34;;;28.49;49.54
21869;BME280;11099;41.564;23.296;2022-09-30T09:59:34;97655.19;;;28.56;50.22
21869;BME280;11099;41.564;23.296;2022-09-30T10:02:00;97653.31;;;28.89;48.92
21869;BME280;11099;41.564;23.296;2022-09-30T10:04:28;97665.09;;;29.26;47.32
21869;BME280;11099;41.564;23.296;2022-09-30T10:07:12;97628.44;;;29.36;46.29
21869;BME280;11099;41.564;23.296;2022-09-30T10:09:39;97608.44;;;28.83;47.78
21869;BME280;11099;41.564;23.296;2022-09-30T10:14:47;97578.09;;;28.94;47.43
21869;BME280;11099;41.564;23.296;2022-09-30T10:17:36;97653.84;;;29.21;43.87
21869;BME280;11099;41.564;23.296;2022-09-30T10:22:41;97583.22;;;28.92;46.46
21869;BME280;11099;41.564;23.296;2022-09-30T10:25:20;97640.13;;;29.04;46.28
21869;BME280;11099;41.564;23.296;2022-09-30T10:28:01;97584.19;;;28.26;47.14
21869;BME280;11099;41.564;23.296;2022-09-30T10:33:21;97587.22;;;28.31;48.10
21869;BME280;11099;41.564;23.296;2022-09-30T10:36:38;97632.94;;;28.74;48.07
21869;BME280;11099;41.564;23.296;2022-09-30T10:38:51;97635.84;;;28.83;49.08
21869;BME280;11099;41.564;23.296;2022-09-30T10:41:21;97558.44;;;28.23;47.34
21869;BME280;11099;41.564;23.296;2022-09-30T10:43:51;97630.34;;;28.47;47.15
21869;BME280;11099;41.564;23.296;2022-09-30T10:46:22;97603.41;;;28.82;45.03
21869;BME280;11099;41.564;23.296;2022-09-30T10:48:50;97547.06;;;28.81;44.26
21869;BME280;11099;41.564;23.296;2022-09-30T10:51:32;97522.44;;;28.45;46.03
21869;BME280;11099;41.564;23.296;2022-09-30T10:53:59;97623.94;;;28.54;48.42
21869;BME280;11099;41.564;23.296;2022-09-30T10:56:33;97620.34;;;28.77;47.21
21869;BME280;11099;41.564;23.296;2022-09-30T10:58:59;97569.56;;;28.36;47.75
21869;BME280;11099;41.564;23.296;2022-09-30T11:01:39;97578.69;;;28.66;46.11
21869;BME280;11099;41.564;23.296;2022-09-30T11:04:24;97619.22;;;28.74;46.01
21869;BME280;11099;41.564;23.296;2022-09-30T11:06:58;97614.47;;;28.58;44.02
21869;BME280;11099;41.564;23.296;2022-09-30T11:09:32;97624.88;;;28.83;45.89
21869;BME280;11099;41.564;23.296;2022-09-30T11:12:47;97622.78;;;28.91;44.93
21869;BME280;11099;41.564;23.296;2022-09-30T11:15:01;97628.50;;;29.33;43.69
21869;BME280;11099;41.564;23.296;2022-09-30T11:17:36;97627.81;;;29.12;42.07
21869;BME280;11099;41.564;23.296;2022-09-30T11:22:40;97638.63;;;29.36;38.63
21869;BME280;11099;41.564;23.296;2022-09-30T11:25:18;97610.66;;;28.72;39.02
21869;BME280;11099;41.564;23.296;2022-09-30T11:28:05;97646.59;;;28.94;40.98
21869;BME280;11099;41.564;23.296;2022-09-30T11:36:28;97554.81;;;29.51;39.14
21869;BME280;11099;41.564;23.296;2022-09-30T11:39:05;97648.13;;;30.13;38.77
21869;BME280;11099;41.564;23.296;2022-09-30T11:41:42;97615.91;;;29.35;39.08
21869;BME280;11099;41.564;23.296;2022-09-30T11:44:33;97630.59;;;30.23;38.52
21869;BME280;11099;41.564;23.296;2022-09-30T11:49:59;97659.38;;;30.31;37.88
21869;BME280;11099;41.564;23.296;2022-09-30T11:52:46;97585.72;;;29.84;37.06
21869;BME280;11099;41.564;23.296;2022-09-30T11:55:27;97633.25;;;30.10;36.65
21869;BME280;11099;41.564;23.296;2022-09-30T11:58:13;97648.06;;;29.51;38.69
21869;BME280;11099;41.564;23.296;2022-09-30T12:00:45;97605.91;;;29.29;38.46
21869;BME280;11099;41.564;23.296;2022-09-30T12:03:17;97646.50;;;29.18;37.63
21869;BME280;11099;41.564;23.296;2022-09-30T12:05:47;97573.97;;;28.86;37.25
21869;BME280;11099;41.564;23.296;2022-09-30T12:08:24;97619.50;;;29.16;36.71
21869;BME280;11099;41.564;23.296;2022-09-30T12:10:55;97648.66;;;29.75;36.47
21869;BME280;11099;41.564;23.296;2022-09-30T12:13:24;97654.59;;;29.74;36.29
21869;BME280;11099;41.564;23.296;2022-09-30T12:15:53;97635.63;;;29.79;37.14
21869;BME280;11099;41.564;23.296;2022-09-30T12:18:32;97552.50;;;29.33;36.91
21869;BME280;11099;41.564;23.296;2022-09-30T12:21:07;97589.88;;;29.60;37.46
21869;BME280;11099;41.564;23.296;2022-09-30T12:23:45;97660.56;;;30.17;36.74
21869;BME280;11099;41.564;23.296;2022-09-30T12:26:13;97636.88;;;30.07;36.92
21869;BME280;11099;41.564;23.296;2022-09-30T12:36:46;97641.91;;;28.75;40.42
21869;BME280;11099;41.564;23.296;2022-09-30T12:39:29;97611.47;;;28.33;41.05
21869;BME280;11099;41.564;23.296;2022-09-30T12:45:04;97637.41;;;29.37;40.53
21869;BME280;11099;41.564;23.296;2022-09-30T12:48:02;97578.19;;;28.71;41.38
21869;BME280;11099;41.564;23.296;2022-09-30T12:50:39;97544.72;;;28.99;41.04
21869;BME280;11099;41.564;23.296;2022-09-30T12:53:14;97444.81;;;28.51;41.32
21869;BME280;11099;41.564;23.296;2022-09-30T12:55:42;97585.31;;;29.70;39.27
21869;BME280;11099;41.564;23.296;2022-09-30T12:58:34;97553.69;;;29.49;39.65
21869;BME280;11099;41.564;23.296;2022-09-30T13:01:13;97656.44;;;29.93;38.59
21869;BME280;11099;41.564;23.296;2022-09-30T13:06:24;97624.06;;;29.72;39.66
21869;BME280;11099;41.564;23.296;2022-09-30T13:11:46;97554.44;;;29.49;38.93
21869;BME280;11099;41.564;23.296;2022-09-30T13:19:34;97651.16;;;29.86;40.78
21869;BME280;11099;41.564;23.296;2022-09-30T13:27:51;97637.00;;;30.33;39.51
21869;BME280;11099;41.564;23.296;2022-09-30T13:32:45;97647.38;;;29.96;38.66
21869;BME280;11099;41.564;23.296;2022-09-30T13:43:26;97607.19;;;28.88;39.57
21869;BME280;11099;41.564;23.296;2022-09-30T13:45:55;97604.81;;;29.06;38.87
21869;BME280;11099;41.564;23.296;2022-09-30T13:48:32;97602.00;;;29.10;39.47
21869;BME280;11099;41.564;23.296;2022-09-30T13:51:02;97556.22;;;28.74;38.98
21869;BME280;11099;41.564;23.296;2022-09-30T13:53:37;97528.19;;;28.67;39.34
21869;BME280;11099;41.564;23.296;2022-09-30T13:56:15;97504.66;;;28.53;39.13
21869;BME280;11099;41.564;23.296;2022-09-30T14:01:45;97653.34;;;29.26;37.86
21869;BME280;11099;41.564;23.296;2022-09-30T14:15:37;97626.38;;;29.40;38.30
21869;BME280;11099;41.564;23.296;2022-09-30T14:24:06;97647.81;;;29.78;37.73
21869;BME280;11099;41.564;23.296;2022-09-30T14:26:56;97643.34;;;29.84;37.35
21869;BME280;11099;41.564;23.296;2022-09-30T14:32:27;97658.53;;;30.34;36.59
21869;BME280;11099;41.564;23.296;2022-09-30T14:35:19;97638.78;;;29.94;37.01
21869;BME280;11099;41.564;23.296;2022-09-30T14:40:40;97600.31;;;29.32;37.39
21869;BME280;11099;41.564;23.296;2022-09-30T14:43:15;97621.22;;;29.43;37.34
21869;BME280;11099;41.564;23.296;2022-09-30T14:45:44;97613.50;;;29.37;37.37
21869;BME280;11099;41.564;23.296;2022-09-30T14:48:32;97558.72;;;28.85;37.73
21869;BME280;11099;41.564;23.296;2022-09-30T14:51:02;97634.72;;;29.17;37.75
21869;BME280;11099;41.564;23.296;2022-09-30T14:53:40;97638.66;;;29.00;38.42
21869;BME280;11099;41.564;23.296;2022-09-30T14:56:21;97605.81;;;28.60;38.34
21869;BME280;11099;41.564;23.296;2022-09-30T14:58:48;97666.06;;;29.00;38.09
21869;BME280;11099;41.564;23.296;2022-09-30T15:01:18;97598.75;;;28.43;37.56
21869;BME280;11099;41.564;23.296;2022-09-30T15:03:52;97644.03;;;28.47;39.20
21869;BME280;11099;41.564;23.296;2022-09-30T15:06:40;97627.13;;;28.29;38.79
21869;BME280;11099;41.564;23.296;2022-09-30T15:11:42;97690.66;;;28.64;38.52
21869;BME280;11099;41.564;23.296;2022-09-30T15:14:19;97650.72;;;28.23;38.57
21869;BME280;11099;41.564;23.296;2022-09-30T15:16:55;97669.44;;;28.48;39.00
21869;BME280;11099;41.564;23.296;2022-09-30T15:19:27;97683.50;;;28.70;38.70
21869;BME280;11099;41.564;23.296;2022-09-30T15:21:56;97694.94;;;28.45;39.57
21869;BME280;11099;41.564;23.296;2022-09-30T15:24:27;97692.97;;;28.45;39.49
21869;BME280;11099;41.564;23.296;2022-09-30T15:26:56;97654.13;;;28.07;40.18
21869;BME280;11099;41.564;23.296;2022-09-30T15:29:22;97654.03;;;28.14;39.75
21869;BME280;11099;41.564;23.296;2022-09-30T15:34:26;97621.72;;;28.05;39.75
21869;BME280;11099;41.564;23.296;2022-09-30T15:37:02;97697.75;;;28.41;40.61
21869;BME280;11099;41.564;23.296;2022-09-30T15:39:33;97647.09;;;27.86;41.00
21869;BME280;11099;41.564;23.296;2022-09-30T15:45:04;97697.94;;;28.50;40.15
21869;BME280;11099;41.564;23.296;2022-09-30T15:47:54;97709.28;;;28.52;40.25
21869;BME280;11099;41.564;23.296;2022-09-30T15:50:45;97731.59;;;28.51;40.69
21869;BME280;11099;41.564;23.296;2022-09-30T15:53:17;97725.78;;;28.69;40.42
21869;BME280;11099;41.564;23.296;2022-09-30T15:55:48;97720.56;;;28.54;40.83
21869;BME280;11099;41.564;23.296;2022-09-30T15:58:35;97709.38;;;28.45;41.11
21869;BME280;11099;41.564;23.296;2022-09-30T16:06:31;97746.53;;;28.23;42.64
21869;BME280;11099;41.564;23.296;2022-09-30T16:09:06;97738.94;;;28.10;42.94
21869;BME280;11099;41.564;23.296;2022-09-30T16:11:40;97725.59;;;27.62;44.16